Time;durP1;ratioP1;P1;durP2;ratioP2;P2;SDS_P1;SDS_P2;PMS_P1;PMS_P2;Temp;Humidity;BMP_temperature;BMP_pressure;BME280_temperature;BME280_humidity;BME280_pressure;Samples;Min_cycle;Max_cycle;Signal;HPM_P1;HPM_P2
2021/05/05 00:00:29;;;;;;;3.55;0.80;;;9.20;99.90;;;;;;4961308;28;20027;-72
2021/05/05 00:02:55;;;;;;;2.15;0.75;;;9.20;99.90;;;;;;4976435;28;20114;-71
2021/05/05 00:05:21;;;;;;;1.88;0.70;;;9.20;99.90;;;;;;4975433;28;20062;-75
2021/05/05 00:07:47;;;;;;;2.88;0.90;;;9.30;99.90;;;;;;4959102;28;20030;-76
2021/05/05 00:10:14;;;;;;;2.33;0.90;;;9.30;99.90;;;;;;4960046;28;20660;-72
2021/05/05 00:12:41;;;;;;;1.10;0.60;;;9.30;99.90;;;;;;4958519;28;20038;-71
2021/05/05 00:15:11;;;;;;;5.25;1.10;;;9.20;99.90;;;;;;4958213;28;20030;-70
2021/05/05 00:17:37;;;;;;;3.58;1.50;;;9.30;99.90;;;;;;4962302;28;20137;-71
2021/05/05 00:20:05;;;;;;;3.47;0.80;;;9.30;99.90;;;;;;4978792;28;20500;-76
2021/05/05 00:22:30;;;;;;;3.58;0.70;;;9.20;99.90;;;;;;4978936;28;20023;-67
2021/05/05 00:24:57;;;;;;;3.92;0.60;;;9.20;99.90;;;;;;4959822;28;20023;-72
2021/05/05 00:27:23;;;;;;;1.92;0.88;;;9.20;99.90;;;;;;4959288;28;20038;-69
2021/05/05 00:29:49;;;;;;;4.22;1.23;;;9.20;99.90;;;;;;4976874;28;20060;-70
2021/05/05 00:32:14;;;;;;;4.28;0.40;;;9.20;99.90;;;;;;4975782;28;20035;-69
2021/05/05 00:34:40;;;;;;;4.32;0.65;;;9.20;99.90;;;;;;4958124;28;20031;-72
2021/05/05 00:37:06;;;;;;;3.35;0.60;;;9.20;99.90;;;;;;4958117;28;20384;-68
2021/05/05 00:39:31;;;;;;;4.93;0.82;;;9.10;99.90;;;;;;4957760;28;20041;-69
2021/05/05 00:41:57;;;;;;;2.65;0.85;;;9.10;99.90;;;;;;4958226;28;20023;-70
2021/05/05 00:44:24;;;;;;;2.72;0.75;;;9.10;99.90;;;;;;4957754;28;20042;-69
2021/05/05 00:47:08;;;;;;;2.42;0.57;;;9.10;99.90;;;;;;4958311;28;20058;-71
2021/05/05 00:49:34;;;;;;;3.55;0.82;;;9.00;99.90;;;;;;4975157;28;20046;-71
2021/05/05 00:52:00;;;;;;;2.50;0.50;;;9.00;99.90;;;;;;4957772;28;20031;-70
2021/05/05 00:54:25;;;;;;;2.55;0.70;;;9.00;99.90;;;;;;4958480;28;20035;-69
2021/05/05 00:56:52;;;;;;;2.03;0.80;;;9.00;99.90;;;;;;4958010;28;20031;-70
2021/05/05 00:59:17;;;;;;;3.25;0.80;;;9.00;99.90;;;;;;4957517;28;20165;-70
2021/05/05 01:01:43;;;;;;;5.97;0.70;;;8.90;99.90;;;;;;4975158;28;20023;-70
2021/05/05 01:04:10;;;;;;;3.67;1.40;;;9.00;99.90;;;;;;4957411;28;20027;-71
2021/05/05 01:06:37;;;;;;;1.92;0.68;;;8.90;99.90;;;;;;4957495;28;20027;-69
2021/05/05 01:09:04;;;;;;;2.95;1.27;;;8.90;99.90;;;;;;4975094;28;20077;-69
2021/05/05 01:11:29;;;;;;;2.28;0.70;;;8.90;99.90;;;;;;4958644;28;20031;-70
2021/05/05 01:13:55;;;;;;;4.55;1.10;;;8.90;99.90;;;;;;4957295;28;20049;-69
2021/05/05 01:16:21;;;;;;;3.78;0.63;;;8.90;99.90;;;;;;4974597;28;20154;-72
2021/05/05 01:18:49;;;;;;;1.73;0.80;;;8.90;99.90;;;;;;4976303;28;20384;-69
2021/05/05 01:21:14;;;;;;;4.32;0.70;;;9.00;99.90;;;;;;4975044;28;20031;-69
2021/05/05 01:23:40;;;;;;;2.03;0.77;;;9.00;99.90;;;;;;4973506;28;20185;-70
2021/05/05 01:26:06;;;;;;;2.30;1.08;;;8.90;99.90;;;;;;4955763;28;20053;-69
2021/05/05 01:28:32;;;;;;;2.30;1.35;;;9.00;99.90;;;;;;4956082;28;20034;-70
2021/05/05 01:30:58;;;;;;;4.38;1.00;;;9.00;99.90;;;;;;4957689;28;20031;-72
2021/05/05 01:33:23;;;;;;;2.08;0.77;;;8.90;99.90;;;;;;4958994;28;20039;-71
2021/05/05 01:35:50;;;;;;;2.30;1.00;;;9.00;99.90;;;;;;4974263;28;20058;-69
2021/05/05 01:38:17;;;;;;;2.63;0.65;;;9.00;99.90;;;;;;4957527;28;20098;-69
2021/05/05 01:40:43;;;;;;;1.70;0.77;;;8.90;99.90;;;;;;4977877;28;20031;-71
2021/05/05 01:43:10;;;;;;;1.17;0.70;;;8.80;99.90;;;;;;4961600;28;20027;-69
2021/05/05 01:45:36;;;;;;;4.18;0.73;;;8.80;99.90;;;;;;4979595;28;20054;-71
2021/05/05 01:48:04;;;;;;;1.25;0.60;;;8.70;99.90;;;;;;4962283;28;20027;-71
2021/05/05 01:50:30;;;;;;;3.50;0.85;;;8.70;99.90;;;;;;4960324;28;20078;-73
2021/05/05 01:52:57;;;;;;;5.95;1.20;;;8.70;99.90;;;;;;4961127;28;20164;-76
2021/05/05 01:55:23;;;;;;;3.70;1.02;;;8.70;99.90;;;;;;4964765;28;20043;-70
2021/05/05 01:57:49;;;;;;;5.13;2.03;;;8.80;99.90;;;;;;4966324;28;20040;-69
2021/05/05 02:00:16;;;;;;;6.05;1.63;;;8.70;99.90;;;;;;4981317;28;20031;-69
2021/05/05 02:02:42;;;;;;;1.98;0.60;;;8.70;99.90;;;;;;4982076;28;20027;-69
2021/05/05 02:05:08;;;;;;;8.35;1.00;;;8.70;99.90;;;;;;4980838;28;20026;-72
2021/05/05 02:07:34;;;;;;;4.88;1.23;;;8.80;99.90;;;;;;4962799;28;20034;-71
2021/05/05 02:10:02;;;;;;;8.10;1.55;;;8.80;99.90;;;;;;4963192;28;20065;-82
2021/05/05 02:12:30;;;;;;;6.05;0.90;;;8.70;99.90;;;;;;4963830;28;20034;-69
2021/05/05 02:14:55;;;;;;;2.47;0.65;;;8.80;99.90;;;;;;4964290;28;20023;-72
2021/05/05 02:17:21;;;;;;;5.68;1.00;;;8.80;99.90;;;;;;4964206;28;20059;-70
2021/05/05 02:19:47;;;;;;;3.92;1.67;;;8.70;99.90;;;;;;4964756;28;20073;-69
2021/05/05 02:22:13;;;;;;;5.38;0.90;;;8.80;99.90;;;;;;4965193;28;20079;-70
2021/05/05 02:24:57;;;;;;;3.22;0.90;;;8.70;99.90;;;;;;4981019;28;20046;-69
2021/05/05 02:27:23;;;;;;;2.53;0.88;;;;;;;;;;4980361;28;20058;-69
2021/05/05 02:29:48;;;;;;;11.07;1.88;;;8.60;99.90;;;;;;4979619;28;20041;-68
2021/05/05 02:32:18;;;;;;;3.45;1.20;;;8.60;99.90;;;;;;4962774;28;20039;-68
2021/05/05 02:34:44;;;;;;;4.78;1.50;;;8.60;99.90;;;;;;4980437;28;20035;-70
2021/05/05 02:37:11;;;;;;;8.32;1.30;;;8.60;99.90;;;;;;4963760;28;20208;-75
2021/05/05 02:39:41;;;;;;;4.38;1.02;;;8.60;99.90;;;;;;4964512;28;20490;-73
2021/05/05 02:42:15;;;;;;;3.22;1.02;;;8.60;99.90;;;;;;4963919;28;20069;-73
2021/05/05 02:44:44;;;;;;;3.38;1.10;;;8.60;99.90;;;;;;4963768;28;20035;-74
2021/05/05 02:47:10;;;;;;;4.90;1.45;;;8.50;99.90;;;;;;4961957;28;20493;-73
2021/05/05 02:49:35;;;;;;;4.10;1.08;;;8.50;99.90;;;;;;4978626;28;20066;-72
2021/05/05 02:52:01;;;;;;;2.45;0.88;;;8.50;99.90;;;;;;4978943;28;20457;-70
2021/05/05 02:54:29;;;;;;;4.30;0.85;;;8.50;99.90;;;;;;4960289;28;20033;-70
2021/05/05 02:56:55;;;;;;;7.93;0.90;;;8.50;99.90;;;;;;4978126;28;20050;-72
2021/05/05 02:59:20;;;;;;;6.05;0.90;;;8.50;99.90;;;;;;4961268;28;20034;-71
2021/05/05 03:01:46;;;;;;;3.15;1.52;;;8.50;99.90;;;;;;4962339;28;20403;-73
2021/05/05 03:04:12;;;;;;;3.50;1.73;;;8.60;99.90;;;;;;4958728;28;20101;-71
2021/05/05 03:06:37;;;;;;;4.63;0.90;;;8.60;99.90;;;;;;4958335;28;20022;-73
2021/05/05 03:09:04;;;;;;;4.85;0.98;;;8.60;99.90;;;;;;4958863;28;20031;-71
2021/05/05 03:11:30;;;;;;;5.38;0.82;;;8.60;99.90;;;;;;4976879;28;20039;-71
2021/05/05 03:13:56;;;;;;;3.13;0.82;;;8.50;99.90;;;;;;4959856;28;20126;-71
2021/05/05 03:16:23;;;;;;;3.83;1.80;;;8.60;99.90;;;;;;4959120;28;20507;-73
2021/05/05 03:18:49;;;;;;;4.75;1.10;;;8.50;99.90;;;;;;4959975;28;20023;-71
2021/05/05 03:21:14;;;;;;;8.90;1.23;;;8.60;99.90;;;;;;4976655;28;20077;-71
2021/05/05 03:23:40;;;;;;;5.97;1.15;;;8.50;99.90;;;;;;4960045;28;20065;-73
2021/05/05 03:26:06;;;;;;;5.07;0.60;;;8.50;99.90;;;;;;4960457;28;20034;-73
2021/05/05 03:28:31;;;;;;;3.53;0.73;;;8.50;99.90;;;;;;4960454;28;20026;-71
2021/05/05 03:30:57;;;;;;;5.50;1.10;;;8.50;99.90;;;;;;4978019;28;20108;-71
2021/05/05 03:33:22;;;;;;;7.07;1.05;;;8.50;99.90;;;;;;4961723;28;20039;-71
2021/05/05 03:35:48;;;;;;;4.68;1.20;;;8.50;99.90;;;;;;4962386;28;20531;-72
2021/05/05 03:38:14;;;;;;;8.70;0.95;;;8.40;99.90;;;;;;4960272;28;20019;-71
2021/05/05 03:40:39;;;;;;;6.78;0.82;;;8.40;99.90;;;;;;4960476;28;20125;-71
2021/05/05 03:43:05;;;;;;;5.85;0.93;;;8.40;99.90;;;;;;4961122;28;20545;-72
2021/05/05 03:45:31;;;;;;;5.00;0.63;;;8.40;99.90;;;;;;4960495;28;20142;-71
2021/05/05 03:47:57;;;;;;;9.43;1.42;;;8.40;99.90;;;;;;4960556;28;20022;-70
2021/05/05 03:50:24;;;;;;;8.80;0.90;;;8.40;99.90;;;;;;4958852;28;20400;-77
2021/05/05 03:52:49;;;;;;;4.85;0.88;;;8.40;99.90;;;;;;4960643;28;20084;-71
2021/05/05 03:55:15;;;;;;;3.60;0.68;;;8.40;99.90;;;;;;4961053;28;20023;-71
2021/05/05 03:57:41;;;;;;;4.93;0.70;;;8.30;99.90;;;;;;4961607;28;20483;-75
2021/05/05 04:00:08;;;;;;;7.53;1.27;;;8.40;99.90;;;;;;4962612;28;20122;-73
2021/05/05 04:02:33;;;;;;;5.97;1.17;;;8.40;99.90;;;;;;4977232;28;20027;-75
2021/05/05 04:05:00;;;;;;;7.10;1.00;;;8.40;99.90;;;;;;4959853;28;20093;-72
2021/05/05 04:07:25;;;;;;;6.95;1.30;;;8.30;99.90;;;;;;4959056;28;20034;-71
2021/05/05 04:09:51;;;;;;;6.15;1.10;;;8.30;99.90;;;;;;4959940;28;20596;-74
2021/05/05 04:12:16;;;;;;;3.63;1.60;;;8.30;99.90;;;;;;4960472;28;20034;-72
2021/05/05 04:14:43;;;;;;;5.50;1.55;;;8.30;99.90;;;;;;4961973;28;20035;-71
2021/05/05 04:17:08;;;;;;;5.10;1.00;;;8.30;99.90;;;;;;4962841;28;20026;-77
2021/05/05 04:19:35;;;;;;;4.10;0.90;;;8.20;99.90;;;;;;4978176;28;20129;-73
2021/05/05 04:22:02;;;;;;;7.30;1.23;;;8.30;99.90;;;;;;4979328;28;20030;-75
2021/05/05 04:24:29;;;;;;;9.27;1.77;;;8.30;99.90;;;;;;4961154;28;20110;-71
2021/05/05 04:26:55;;;;;;;5.68;0.95;;;8.30;99.90;;;;;;4960603;28;20053;-72
2021/05/05 04:29:21;;;;;;;6.38;1.63;;;8.30;99.90;;;;;;4959765;28;20022;-72
2021/05/05 04:31:48;;;;;;;4.82;1.15;;;8.20;99.90;;;;;;4978213;28;20105;-72
2021/05/05 04:34:15;;;;;;;5.30;1.23;;;8.20;99.90;;;;;;4959095;28;20033;-71
2021/05/05 04:36:41;;;;;;;8.40;1.27;;;8.30;99.90;;;;;;4976329;28;20098;-71
2021/05/05 04:39:07;;;;;;;5.70;1.50;;;8.30;99.90;;;;;;4975691;28;20481;-72
2021/05/05 04:41:32;;;;;;;6.18;1.20;;;8.20;99.90;;;;;;4976398;28;20027;-72
2021/05/05 04:43:58;;;;;;;5.72;1.50;;;8.20;99.90;;;;;;4945689;28;20436;-72
2021/05/05 04:46:24;;;;;;;8.25;2.28;;;8.20;99.90;;;;;;4976848;28;20055;-72
2021/05/05 04:48:49;;;;;;;7.15;1.30;;;8.20;99.90;;;;;;4976297;28;20029;-72
2021/05/05 04:51:15;;;;;;;2.72;0.82;;;8.10;99.90;;;;;;4958410;28;20034;-71
2021/05/05 04:53:41;;;;;;;4.35;0.80;;;8.20;99.90;;;;;;4976242;28;20081;-71
2021/05/05 04:56:07;;;;;;;5.18;1.55;;;8.20;99.90;;;;;;4960528;28;20022;-71
2021/05/05 04:58:33;;;;;;;5.50;1.15;;;8.20;99.90;;;;;;4975965;28;20038;-71
2021/05/05 05:00:58;;;;;;;4.28;1.10;;;8.10;99.90;;;;;;4975803;28;20031;-71
2021/05/05 05:03:24;;;;;;;3.78;1.38;;;8.10;99.90;;;;;;4975018;28;20031;-70
2021/05/05 05:05:50;;;;;;;5.75;1.48;;;8.30;99.90;;;;;;4957834;28;20062;-71
2021/05/05 05:08:15;;;;;;;6.32;1.15;;;8.30;99.90;;;;;;4957937;28;20027;-71
2021/05/05 05:10:41;;;;;;;7.07;1.42;;;8.20;99.90;;;;;;4975808;28;20027;-71
2021/05/05 05:13:07;;;;;;;5.32;1.13;;;8.20;99.90;;;;;;4975333;28;20424;-71
2021/05/05 05:15:32;;;;;;;8.43;1.17;;;8.20;99.90;;;;;;4958093;28;20485;-72
2021/05/05 05:17:59;;;;;;;7.22;1.50;;;8.20;99.90;;;;;;4975180;28;20469;-71
2021/05/05 05:20:25;;;;;;;5.43;1.23;;;8.10;99.90;;;;;;4974585;28;20031;-71
2021/05/05 05:22:54;;;;;;;5.93;0.90;;;8.20;99.90;;;;;;4975896;28;20099;-70
2021/05/05 05:25:21;;;;;;;5.10;1.15;;;8.30;99.90;;;;;;4960864;28;20031;-69
2021/05/05 05:27:47;;;;;;;7.20;1.70;;;8.30;99.90;;;;;;4974843;28;20121;-70
2021/05/05 05:30:13;;;;;;;14.18;1.40;;;8.40;99.90;;;;;;4976437;28;20682;-79
2021/05/05 05:32:39;;;;;;;9.82;1.60;;;8.40;99.90;;;;;;4977186;28;20042;-69
2021/05/05 05:35:05;;;;;;;10.32;1.90;;;8.40;99.90;;;;;;4977449;28;20031;-65
2021/05/05 05:37:31;;;;;;;5.85;1.20;;;9.00;99.90;;;;;;4976538;28;20041;-73
2021/05/05 05:39:57;;;;;;;5.90;0.80;;;9.50;99.20;;;;;;4959667;28;20030;-73
2021/05/05 05:42:23;;;;;;;5.20;1.88;;;10.10;98.00;;;;;;4961297;28;20520;-69
2021/05/05 05:44:51;;;;;;;6.43;1.25;;;9.20;98.30;;;;;;4961452;28;20040;-69
2021/05/05 05:47:16;;;;;;;4.40;0.95;;;8.90;99.90;;;;;;4978229;28;20066;-70
2021/05/05 05:49:42;;;;;;;7.97;1.17;;;9.20;99.90;;;;;;4978148;28;20177;-69
2021/05/05 05:52:08;;;;;;;5.72;1.30;;;9.20;99.90;;;;;;4978564;28;20039;-70
2021/05/05 05:54:33;;;;;;;12.30;1.70;;;9.20;98.80;;;;;;4961589;28;20440;-71
2021/05/05 05:56:59;;;;;;;5.93;1.50;;;9.10;99.00;;;;;;4978104;28;20050;-71
2021/05/05 05:59:25;;;;;;;3.53;1.20;;;9.00;98.90;;;;;;4977856;28;20034;-71
2021/05/05 06:01:50;;;;;;;11.00;1.58;;;8.80;99.10;;;;;;4978986;28;20068;-70
2021/05/05 06:04:17;;;;;;;7.82;1.52;;;8.90;99.40;;;;;;4977401;28;20031;-72
2021/05/05 06:06:43;;;;;;;5.97;1.40;;;8.90;99.30;;;;;;4977112;28;20420;-70
2021/05/05 06:09:09;;;;;;;6.43;2.10;;;9.00;99.20;;;;;;4976686;28;20026;-70
2021/05/05 06:11:35;;;;;;;10.75;1.63;;;8.90;99.30;;;;;;4977460;28;20085;-69
2021/05/05 06:14:00;;;;;;;12.20;2.08;;;9.00;99.10;;;;;;4977087;28;20488;-71
2021/05/05 06:16:55;;;;;;;9.85;1.90;;;9.00;99.20;;;;;;4978369;28;20467;-71
2021/05/05 06:19:21;;;;;;;7.18;1.67;;;9.10;99.10;;;;;;4979181;28;20033;-70
2021/05/05 06:21:46;;;;;;;7.82;1.38;;;9.10;99.00;;;;;;4977487;28;20034;-71
2021/05/05 06:24:13;;;;;;;9.35;1.77;;;9.10;99.20;;;;;;4978784;28;20050;-78
2021/05/05 06:26:39;;;;;;;3.78;1.63;;;9.10;99.00;;;;;;4978952;28;20472;-70
2021/05/05 06:29:05;;;;;;;21.40;2.03;;;9.20;99.10;;;;;;4977773;28;20027;-70
2021/05/05 06:31:30;;;;;;;16.60;2.28;;;9.30;98.90;;;;;;4976680;28;20070;-74
2021/05/05 06:33:57;;;;;;;8.45;1.80;;;9.30;98.60;;;;;;4977279;28;20034;-72
2021/05/05 06:36:22;;;;;;;11.15;3.15;;;9.40;98.50;;;;;;4976535;28;20029;-72
2021/05/05 06:38:48;;;;;;;10.00;1.80;;;9.30;98.80;;;;;;4976786;28;20381;-71
2021/05/05 06:41:14;;;;;;;16.70;2.92;;;9.50;98.50;;;;;;4973211;28;20089;-72
2021/05/05 06:43:40;;;;;;;7.43;1.58;;;9.70;98.20;;;;;;4975487;28;20035;-69
2021/05/05 06:46:13;;;;;;;9.68;1.88;;;9.50;98.00;;;;;;4976807;28;20054;-69
2021/05/05 06:48:39;;;;;;;10.40;2.15;;;9.50;98.30;;;;;;4977526;28;20054;-70
2021/05/05 06:51:05;;;;;;;27.35;2.42;;;9.50;98.10;;;;;;4977162;28;20065;-70
2021/05/05 06:53:30;;;;;;;9.80;2.72;;;9.60;98.30;;;;;;4960959;28;20392;-71
2021/05/05 06:56:01;;;;;;;14.32;2.58;;;9.60;97.90;;;;;;4976962;28;20031;-71
2021/05/05 06:58:43;;;;;;;7.43;2.20;;;9.80;97.70;;;;;;4977985;28;20030;-71
2021/05/05 07:01:09;;;;;;;15.68;3.95;;;9.80;97.30;;;;;;4976836;28;20110;-70
2021/05/05 07:03:35;;;;;;;9.70;2.20;;;9.90;97.50;;;;;;4976425;28;20043;-71
2021/05/05 07:06:02;;;;;;;11.15;2.15;;;9.90;97.20;;;;;;4976736;28;20029;-70
2021/05/05 07:08:27;;;;;;;7.30;2.72;;;10.00;97.10;;;;;;4978570;28;20027;-72
2021/05/05 07:10:53;;;;;;;10.00;2.55;;;10.10;97.10;;;;;;4976990;28;20073;-69
2021/05/05 07:13:20;;;;;;;12.80;2.30;;;10.40;96.50;;;;;;4963563;28;20069;-74
2021/05/05 07:15:46;;;;;;;12.32;2.67;;;10.60;96.20;;;;;;4958781;28;20454;-72
2021/05/05 07:18:12;;;;;;;11.43;2.42;;;10.80;95.60;;;;;;4958909;28;20031;-77
2021/05/05 07:20:38;;;;;;;6.88;2.50;;;10.50;95.30;;;;;;4978172;28;20129;-69
2021/05/05 07:23:05;;;;;;;8.77;2.42;;;10.30;95.80;;;;;;4978264;28;20465;-74
2021/05/05 07:25:30;;;;;;;8.10;1.33;;;10.20;96.40;;;;;;4960467;28;20069;-68
2021/05/05 07:27:58;;;;;;;11.60;2.53;;;10.40;99.90;;;;;;4958821;28;20027;-63
2021/05/05 07:30:24;;;;;;;10.38;2.67;;;11.50;96.40;;;;;;4975451;28;20041;-62
2021/05/05 07:32:49;;;;;;;11.90;2.40;;;11.60;94.70;;;;;;4958429;28;20467;-64
2021/05/05 07:35:17;;;;;;;8.50;3.33;;;11.90;93.60;;;;;;4975837;28;20026;-63
2021/05/05 07:48:31;;;;;;;;;;;11.30;94.60;;;;;;4975691;28;20093;-67
2021/05/05 07:50:57;;;;;;;8.95;2.30;;;10.60;96.20;;;;;;4959564;28;19914;-70
2021/05/05 07:53:23;;;;;;;8.32;1.90;;;10.50;98.30;;;;;;4960471;28;20026;-71
2021/05/05 07:55:51;;;;;;;7.85;2.03;;;9.90;98.40;;;;;;4964292;28;20097;-72
2021/05/05 07:58:17;;;;;;;6.72;2.58;;;9.90;99.60;;;;;;4980656;28;20065;-71
2021/05/05 08:00:43;;;;;;;8.15;2.20;;;10.10;99.80;;;;;;4962161;28;20114;-72
2021/05/05 08:03:10;;;;;;;7.47;2.10;;;10.40;99.50;;;;;;4961022;28;20038;-74
2021/05/05 08:05:35;;;;;;;6.90;2.38;;;10.70;98.30;;;;;;4960683;28;20121;-80
2021/05/05 08:08:01;;;;;;;8.82;2.45;;;10.90;97.80;;;;;;4959921;28;20129;-73
2021/05/05 08:10:27;;;;;;;15.80;3.85;;;11.20;97.90;;;;;;4959340;28;20031;-75
2021/05/05 08:12:54;;;;;;;7.95;2.03;;;11.20;97.00;;;;;;4977078;28;20514;-73
2021/05/05 08:15:20;;;;;;;13.55;2.72;;;11.00;96.90;;;;;;4960014;28;20034;-70
2021/05/05 08:17:46;;;;;;;14.27;2.65;;;11.40;98.40;;;;;;4971993;28;20066;-69
2021/05/05 08:20:14;;;;;;;12.75;2.40;;;12.30;97.30;;;;;;4953902;28;20134;-74
2021/05/05 08:22:40;;;;;;;11.27;2.10;;;12.60;96.00;;;;;;4953339;28;20077;-67
2021/05/05 08:25:06;;;;;;;10.82;2.05;;;13.60;93.50;;;;;;4953023;28;20023;-67
2021/05/05 08:27:32;;;;;;;8.57;1.85;;;14.00;92.00;;;;;;4952698;28;20469;-70
2021/05/05 08:29:58;;;;;;;7.35;1.85;;;13.80;91.30;;;;;;4971415;28;20034;-72
2021/05/05 08:32:24;;;;;;;5.65;1.80;;;12.60;91.90;;;;;;4953946;28;20365;-70
2021/05/05 08:34:50;;;;;;;12.10;2.22;;;12.30;92.20;;;;;;4955035;28;20373;-68
2021/05/05 08:37:16;;;;;;;7.00;2.40;;;11.90;92.60;;;;;;4974510;28;20061;-67
2021/05/05 08:39:41;;;;;;;6.22;1.98;;;11.50;92.80;;;;;;4956294;28;20477;-68
2021/05/05 08:42:07;;;;;;;9.43;2.00;;;11.30;93.40;;;;;;4954119;28;20393;-68
2021/05/05 08:44:33;;;;;;;7.43;2.30;;;11.20;93.40;;;;;;4973979;28;20065;-70
2021/05/05 08:46:59;;;;;;;8.18;2.10;;;10.80;93.60;;;;;;4953991;29;20135;-69
2021/05/05 08:49:27;;;;;;;8.73;2.17;;;11.00;94.00;;;;;;4937529;29;20485;-73
2021/05/05 08:51:53;;;;;;;16.33;2.22;;;11.40;92.80;;;;;;4951206;29;20493;-69
2021/05/05 08:54:19;;;;;;;11.25;2.10;;;12.10;91.50;;;;;;4952343;29;20023;-70
2021/05/05 08:56:45;;;;;;;7.10;1.80;;;12.40;90.20;;;;;;4933619;29;20058;-67
2021/05/05 08:59:15;;;;;;;10.88;2.50;;;12.50;88.50;;;;;;4933635;29;20419;-75
2021/05/05 09:01:43;;;;;;;9.02;1.80;;;12.80;88.40;;;;;;4911928;29;20048;-74
2021/05/05 09:04:09;;;;;;;3.88;1.45;;;12.80;84.40;;;;;;4913849;29;20036;-68
2021/05/05 09:06:54;;;;;;;5.20;1.50;;;12.90;83.10;;;;;;4910059;29;20036;-67
2021/05/05 09:09:34;;;;;;;5.32;1.30;;;13.20;81.80;;;;;;4914473;29;20422;-70
2021/05/05 09:12:13;;;;;;;5.70;1.42;;;13.20;81.10;;;;;;4911759;29;20083;-70
2021/05/05 09:14:59;;;;;;;6.75;2.53;;;13.50;78.70;;;;;;4916747;29;20103;-71
2021/05/05 09:17:36;;;;;;;10.88;1.98;;;13.10;78.60;;;;;;4917100;29;20198;-69
2021/05/05 09:20:04;;;;;;;7.65;1.30;;;13.40;79.40;;;;;;4912576;29;20426;-67
2021/05/05 09:22:40;;;;;;;6.50;1.23;;;13.60;74.60;;;;;;4912380;29;20145;-64
2021/05/05 09:25:11;;;;;;;21.27;2.35;;;13.70;73.90;;;;;;4911628;29;20060;-66
2021/05/05 09:27:38;;;;;;;3.67;1.55;;;14.00;75.90;;;;;;4894988;29;20171;-63
2021/05/05 09:30:07;;;;;;;4.13;1.00;;;14.10;80.30;;;;;;4915790;29;20099;-64
2021/05/05 09:32:54;;;;;;;2.90;0.85;;;13.80;72.70;;;;;;4933104;29;20047;-65
2021/05/05 09:35:38;;;;;;;6.50;0.98;;;14.10;71.90;;;;;;4949931;29;20015;-64
2021/05/05 09:38:07;;;;;;;10.45;1.00;;;14.30;70.20;;;;;;4948142;29;20180;-65
2021/05/05 09:40:34;;;;;;;3.38;1.13;;;14.00;66.80;;;;;;4949416;28;20019;-66
2021/05/05 09:49:35;;;;;;;1.45;0.47;;;10.90;93.90;;;;;;4956533;28;20030;-66
2021/05/05 09:52:05;;;;;;;2.45;0.32;;;10.30;97.90;;;;;;4972074;28;20551;-66
2021/05/05 09:54:37;;;;;;;1.67;0.30;;;9.90;99.90;;;;;;4956116;28;20107;-68
2021/05/05 09:57:23;;;;;;;1.48;0.28;;;9.50;99.90;;;;;;4973618;28;20054;-66
2021/05/05 10:00:04;;;;;;;1.40;0.50;;;9.60;99.90;;;;;;4953747;28;20433;-65
2021/05/05 10:02:41;;;;;;;1.10;0.50;;;9.70;99.90;;;;;;4970178;28;20031;-65
2021/05/05 10:05:14;;;;;;;2.25;0.50;;;10.60;99.70;;;;;;4969877;28;20184;-72
2021/05/05 10:07:55;;;;;;;3.28;0.57;;;11.80;98.20;;;;;;4951081;28;20031;-66
2021/05/05 10:10:24;;;;;;;2.72;0.73;;;12.30;95.40;;;;;;4962806;28;20033;-66
2021/05/05 10:12:51;;;;;;;4.55;1.52;;;12.40;92.90;;;;;;4970283;28;20070;-69
2021/05/05 10:15:17;;;;;;;3.33;0.95;;;12.30;93.20;;;;;;4960146;28;20034;-69
2021/05/05 10:17:48;;;;;;;4.97;0.95;;;12.10;93.60;;;;;;4955061;28;20034;-67
2021/05/05 10:20:16;;;;;;;9.10;1.20;;;12.50;92.30;;;;;;4955344;28;20401;-72
2021/05/05 10:22:42;;;;;;;4.90;0.90;;;12.70;93.00;;;;;;4961385;28;20520;-65
2021/05/05 10:25:12;;;;;;;5.68;0.70;;;12.70;91.90;;;;;;4955450;28;20041;-67
2021/05/05 10:27:38;;;;;;;2.75;0.30;;;12.30;92.20;;;;;;4978095;28;20471;-67
2021/05/05 10:30:05;;;;;;;6.22;0.55;;;11.80;91.30;;;;;;4980117;28;20047;-66
2021/05/05 10:32:33;;;;;;;4.10;0.28;;;11.60;91.50;;;;;;4960166;28;20319;-66
2021/05/05 10:34:59;;;;;;;0.50;0.20;;;11.30;91.60;;;;;;4961010;28;20491;-65
2021/05/05 10:37:58;;;;;;;7.20;0.60;;;11.30;91.00;;;;;;4958000;28;20038;-65
2021/05/05 10:40:32;;;;;;;18.60;2.83;;;11.40;90.80;;;;;;4976160;28;20061;-69
2021/05/05 10:43:07;;;;;;;2.45;0.70;;;11.20;91.00;;;;;;4962485;28;20036;-66
2021/05/05 10:45:45;;;;;;;3.60;0.90;;;11.30;90.60;;;;;;4980041;28;20041;-65
2021/05/05 10:48:14;;;;;;;2.65;0.40;;;11.40;90.50;;;;;;4955740;28;20035;-65
2021/05/05 10:50:50;;;;;;;1.58;0.60;;;11.50;90.00;;;;;;4972002;28;20058;-66
2021/05/05 10:53:23;;;;;;;1.85;0.35;;;12.00;89.30;;;;;;4973238;28;20165;-65
2021/05/05 10:55:58;;;;;;;9.60;0.63;;;12.30;88.00;;;;;;4971487;28;20047;-64
2021/05/05 10:58:26;;;;;;;3.03;0.80;;;12.10;85.40;;;;;;4973955;28;20520;-65
2021/05/05 11:01:05;;;;;;;1.02;0.30;;;12.40;85.20;;;;;;4953726;28;20126;-64
2021/05/05 11:03:46;;;;;;;1.83;0.50;;;12.80;84.80;;;;;;4953073;28;20029;-65
2021/05/05 11:06:33;;;;;;;8.05;0.60;;;13.30;82.30;;;;;;4970712;28;20128;-66
2021/05/05 11:09:16;;;;;;;1.42;0.40;;;13.30;81.10;;;;;;4968128;28;20404;-68
2021/05/05 11:11:46;;;;;;;1.00;0.40;;;13.70;80.30;;;;;;4954088;28;20034;-68
2021/05/05 11:14:24;;;;;;;8.57;0.80;;;14.10;78.40;;;;;;4972097;28;20038;-66
2021/05/05 11:17:04;;;;;;;4.07;0.50;;;14.50;77.60;;;;;;4948519;28;20102;-67
2021/05/05 11:19:35;;;;;;;3.60;0.95;;;14.40;76.80;;;;;;4971658;28;20344;-51
2021/05/05 11:22:03;;;;;;;2.17;0.77;;;14.40;87.40;;;;;;4973536;28;20110;-65
2021/05/05 11:24:39;;;;;;;1.00;0.60;;;14.70;77.20;;;;;;4972986;28;20102;-65
2021/05/05 11:27:11;;;;;;;1.95;0.50;;;13.50;78.90;;;;;;4955651;28;20034;-63
2021/05/05 11:29:43;;;;;;;0.75;0.38;;;12.90;81.50;;;;;;4953899;28;20035;-64
2021/05/05 11:32:25;;;;;;;0.68;0.40;;;12.90;81.30;;;;;;4953877;29;20027;-65
2021/05/05 11:34:53;;;;;;;0.70;0.50;;;12.90;81.90;;;;;;4950750;28;20035;-65
2021/05/05 11:37:27;;;;;;;2.15;0.73;;;13.50;80.60;;;;;;4954606;28;20071;-64
2021/05/05 11:40:02;;;;;;;2.33;0.63;;;14.30;78.90;;;;;;4954923;28;20042;-65
2021/05/05 11:42:33;;;;;;;3.88;0.60;;;14.50;76.40;;;;;;4954271;28;20034;-64
2021/05/05 11:45:01;;;;;;;4.90;0.38;;;14.60;74.20;;;;;;4972924;28;20042;-65
2021/05/05 11:47:33;;;;;;;3.35;0.40;;;14.50;73.30;;;;;;4953901;28;20121;-66
2021/05/05 11:50:10;;;;;;;3.28;0.40;;;14.80;73.60;;;;;;4955538;28;20031;-66
2021/05/05 11:52:44;;;;;;;2.00;0.57;;;14.30;72.90;;;;;;4972054;28;20329;-66
2021/05/05 11:55:10;;;;;;;0.70;0.30;;;14.50;73.20;;;;;;4971194;28;20023;-64
2021/05/05 11:57:43;;;;;;;3.70;0.90;;;14.40;72.10;;;;;;4971386;28;20464;-66
2021/05/05 12:00:14;;;;;;;3.13;0.30;;;14.80;70.10;;;;;;4971968;28;20081;-67
2021/05/05 12:02:50;;;;;;;4.18;0.43;;;14.40;70.80;;;;;;4953302;28;20118;-66
2021/05/05 12:05:28;;;;;;;4.38;0.38;;;14.00;70.80;;;;;;4955247;28;20077;-64
2021/05/05 12:08:18;;;;;;;1.20;0.30;;;13.30;70.60;;;;;;4953882;28;20050;-64
2021/05/05 12:11:00;;;;;;;2.75;0.30;;;13.30;71.20;;;;;;4971925;28;20128;-63
2021/05/05 12:13:29;;;;;;;4.07;0.57;;;13.30;69.10;;;;;;4952313;28;20038;-46
2021/05/05 12:16:10;;;;;;;4.80;0.63;;;13.70;99.90;;;;;;4972235;28;20027;-48
2021/05/05 12:18:43;;;;;;;0.60;0.20;;;14.50;77.90;;;;;;4971688;28;20498;-67
2021/05/05 12:21:15;;;;;;;3.75;0.30;;;14.10;70.90;;;;;;4954520;28;20427;-67
2021/05/05 12:23:47;;;;;;;2.17;0.50;;;13.40;71.90;;;;;;4953680;28;20126;-66
2021/05/05 12:26:15;;;;;;;3.85;1.40;;;12.90;72.50;;;;;;4972276;28;20023;-67
2021/05/05 12:28:42;;;;;;;2.78;0.47;;;12.60;75.40;;;;;;4952885;28;20045;-66
2021/05/05 12:31:11;;;;;;;2.42;0.68;;;12.50;77.60;;;;;;4954518;28;20589;-65
2021/05/05 12:33:39;;;;;;;1.85;0.38;;;11.80;82.80;;;;;;4955509;28;20065;-66
2021/05/05 12:36:12;;;;;;;3.80;0.40;;;11.50;87.00;;;;;;4972732;28;20023;-66
2021/05/05 12:38:42;;;;;;;0.90;0.50;;;11.30;88.40;;;;;;4955462;28;20026;-70
2021/05/05 12:41:12;;;;;;;6.80;0.40;;;11.00;90.20;;;;;;4956075;28;20033;-67
2021/05/05 12:43:38;;;;;;;4.53;0.60;;;10.70;91.60;;;;;;4978968;28;20053;-65
2021/05/05 12:46:05;;;;;;;1.95;0.40;;;10.10;97.70;;;;;;4959398;28;20062;-67
2021/05/05 12:48:38;;;;;;;2.17;0.13;;;9.80;98.80;;;;;;4969957;28;20025;-64
2021/05/05 12:51:13;;;;;;;2.10;1.00;;;9.30;99.90;;;;;;4973968;28;20031;-66
2021/05/05 12:53:58;;;;;;;1.35;0.20;;;9.40;99.90;;;;;;4955376;28;20544;-65
2021/05/05 12:57:02;;;;;;;0.63;0.20;;;9.20;99.90;;;;;;4958366;28;20027;-75
2021/05/05 12:59:33;;;;;;;0.40;0.20;;;9.40;99.90;;;;;;4909678;29;20029;-68
2021/05/05 13:02:20;;;;;;;0.55;0.30;;;9.60;99.90;;;;;;4901817;29;20036;-67
2021/05/05 13:04:46;;;;;;;4.28;0.32;;;9.70;99.90;;;;;;4913768;29;20036;-65
2021/05/05 13:07:34;;;;;;;1.00;0.50;;;10.20;99.90;;;;;;4920395;29;20437;-65
2021/05/05 13:10:10;;;;;;;1.60;0.20;;;10.70;99.90;;;;;;4899104;29;20067;-71
2021/05/05 13:12:49;;;;;;;1.02;0.40;;;10.80;99.00;;;;;;4913762;29;20036;-65
2021/05/05 13:34:19;;;;;;;1.65;0.73;;;11.30;96.10;;;;;;4966323;28;20094;-70
2021/05/05 13:37:15;;;;;;;1.63;0.80;;;11.30;95.60;;;;;;4957208;28;20031;-70